sensor_id;sensor_type;location;lat;lon;timestamp;P1;durP1;ratioP1;P2;durP2;ratioP2
77769;SDS011;66961;51.482;9.160;2024-02-26T00:01:38;23.13;;;13.40;;
77769;SDS011;66961;51.482;9.160;2024-02-26T00:04:03;24.07;;;13.60;;
77769;SDS011;66961;51.482;9.160;2024-02-26T00:06:29;23.98;;;13.10;;
77769;SDS011;66961;51.482;9.160;2024-02-26T00:08:55;24.25;;;12.65;;
77769;SDS011;66961;51.482;9.160;2024-02-26T00:11:20;20.80;;;12.43;;
77769;SDS011;66961;51.482;9.160;2024-02-26T00:13:45;22.23;;;13.10;;
77769;SDS011;66961;51.482;9.160;2024-02-26T00:16:11;22.90;;;12.83;;
77769;SDS011;66961;51.482;9.160;2024-02-26T00:18:36;20.00;;;12.17;;
77769;SDS011;66961;51.482;9.160;2024-02-26T00:21:02;21.37;;;11.57;;
77769;SDS011;66961;51.482;9.160;2024-02-26T00:23:27;20.98;;;11.95;;
77769;SDS011;66961;51.482;9.160;2024-02-26T00:25:52;20.20;;;11.30;;
77769;SDS011;66961;51.482;9.160;2024-02-26T00:28:18;21.47;;;11.40;;
77769;SDS011;66961;51.482;9.160;2024-02-26T00:30:43;20.07;;;12.50;;
77769;SDS011;66961;51.482;9.160;2024-02-26T00:33:08;21.57;;;12.70;;
77769;SDS011;66961;51.482;9.160;2024-02-26T00:35:33;21.83;;;12.50;;
77769;SDS011;66961;51.482;9.160;2024-02-26T00:37:59;23.17;;;12.07;;
77769;SDS011;66961;51.482;9.160;2024-02-26T00:40:24;20.00;;;11.90;;
77769;SDS011;66961;51.482;9.160;2024-02-26T00:42:49;22.57;;;12.00;;
77769;SDS011;66961;51.482;9.160;2024-02-26T00:45:14;19.93;;;12.63;;
77769;SDS011;66961;51.482;9.160;2024-02-26T00:47:40;24.20;;;13.07;;
77769;SDS011;66961;51.482;9.160;2024-02-26T00:50:05;19.80;;;11.85;;
77769;SDS011;66961;51.482;9.160;2024-02-26T00:52:31;19.42;;;12.40;;
77769;SDS011;66961;51.482;9.160;2024-02-26T00:54:56;20.60;;;12.20;;
77769;SDS011;66961;51.482;9.160;2024-02-26T00:57:21;21.50;;;11.80;;
77769;SDS011;66961;51.482;9.160;2024-02-26T00:59:47;20.60;;;11.47;;
77769;SDS011;66961;51.482;9.160;2024-02-26T01:02:12;20.13;;;10.90;;
77769;SDS011;66961;51.482;9.160;2024-02-26T01:04:37;19.97;;;11.13;;
77769;SDS011;66961;51.482;9.160;2024-02-26T01:07:02;17.87;;;10.50;;
77769;SDS011;66961;51.482;9.160;2024-02-26T01:09:28;17.93;;;10.97;;
77769;SDS011;66961;51.482;9.160;2024-02-26T01:11:53;19.03;;;11.23;;
77769;SDS011;66961;51.482;9.160;2024-02-26T01:14:18;18.80;;;11.00;;
77769;SDS011;66961;51.482;9.160;2024-02-26T01:16:43;19.80;;;10.97;;
77769;SDS011;66961;51.482;9.160;2024-02-26T01:19:09;20.97;;;11.03;;
77769;SDS011;66961;51.482;9.160;2024-02-26T01:21:34;17.73;;;10.50;;
77769;SDS011;66961;51.482;9.160;2024-02-26T01:23:59;19.23;;;10.97;;
77769;SDS011;66961;51.482;9.160;2024-02-26T01:26:24;21.27;;;11.53;;
77769;SDS011;66961;51.482;9.160;2024-02-26T01:28:50;18.43;;;10.60;;
77769;SDS011;66961;51.482;9.160;2024-02-26T01:31:15;18.63;;;10.80;;
77769;SDS011;66961;51.482;9.160;2024-02-26T01:33:40;18.23;;;10.83;;
77769;SDS011;66961;51.482;9.160;2024-02-26T01:36:05;16.33;;;10.17;;
77769;SDS011;66961;51.482;9.160;2024-02-26T01:38:31;18.95;;;10.77;;
77769;SDS011;66961;51.482;9.160;2024-02-26T01:40:56;14.70;;;9.37;;
77769;SDS011;66961;51.482;9.160;2024-02-26T01:43:21;16.53;;;9.70;;
77769;SDS011;66961;51.482;9.160;2024-02-26T01:45:47;17.02;;;9.40;;
77769;SDS011;66961;51.482;9.160;2024-02-26T01:48:12;15.07;;;9.27;;
77769;SDS011;66961;51.482;9.160;2024-02-26T01:50:37;15.97;;;9.00;;
77769;SDS011;66961;51.482;9.160;2024-02-26T01:53:03;16.33;;;9.20;;
77769;SDS011;66961;51.482;9.160;2024-02-26T01:55:29;14.98;;;9.50;;
77769;SDS011;66961;51.482;9.160;2024-02-26T01:57:54;14.63;;;9.15;;
77769;SDS011;66961;51.482;9.160;2024-02-26T02:00:20;14.90;;;9.27;;
77769;SDS011;66961;51.482;9.160;2024-02-26T02:02:46;14.45;;;8.85;;
77769;SDS011;66961;51.482;9.160;2024-02-26T02:05:11;15.30;;;9.27;;
77769;SDS011;66961;51.482;9.160;2024-02-26T02:07:37;15.95;;;9.07;;
77769;SDS011;66961;51.482;9.160;2024-02-26T02:10:03;15.57;;;8.73;;
77769;SDS011;66961;51.482;9.160;2024-02-26T02:12:28;13.88;;;8.70;;
77769;SDS011;66961;51.482;9.160;2024-02-26T02:14:54;10.13;;;6.72;;
77769;SDS011;66961;51.482;9.160;2024-02-26T02:17:19;10.25;;;7.13;;
77769;SDS011;66961;51.482;9.160;2024-02-26T02:19:45;11.13;;;7.25;;
77769;SDS011;66961;51.482;9.160;2024-02-26T02:22:10;12.80;;;7.50;;
77769;SDS011;66961;51.482;9.160;2024-02-26T02:24:36;11.07;;;6.93;;
77769;SDS011;66961;51.482;9.160;2024-02-26T02:27:01;11.67;;;7.63;;
77769;SDS011;66961;51.482;9.160;2024-02-26T02:29:26;15.63;;;8.02;;
77769;SDS011;66961;51.482;9.160;2024-02-26T02:31:52;14.88;;;7.97;;
77769;SDS011;66961;51.482;9.160;2024-02-26T02:34:17;10.30;;;7.00;;
77769;SDS011;66961;51.482;9.160;2024-02-26T02:36:51;13.68;;;7.78;;
77769;SDS011;66961;51.482;9.160;2024-02-26T02:39:17;12.63;;;8.55;;
77769;SDS011;66961;51.482;9.160;2024-02-26T02:41:42;17.90;;;10.03;;
77769;SDS011;66961;51.482;9.160;2024-02-26T02:44:07;14.93;;;9.33;;
77769;SDS011;66961;51.482;9.160;2024-02-26T02:46:33;14.37;;;8.47;;
77769;SDS011;66961;51.482;9.160;2024-02-26T02:48:58;16.67;;;9.80;;
77769;SDS011;66961;51.482;9.160;2024-02-26T02:51:23;14.83;;;8.80;;
77769;SDS011;66961;51.482;9.160;2024-02-26T02:53:48;16.23;;;9.10;;
77769;SDS011;66961;51.482;9.160;2024-02-26T02:56:14;15.80;;;9.07;;
77769;SDS011;66961;51.482;9.160;2024-02-26T02:58:39;15.10;;;8.93;;
77769;SDS011;66961;51.482;9.160;2024-02-26T03:01:04;11.47;;;8.20;;
77769;SDS011;66961;51.482;9.160;2024-02-26T03:03:29;14.97;;;9.27;;
77769;SDS011;66961;51.482;9.160;2024-02-26T03:05:55;15.10;;;8.67;;
77769;SDS011;66961;51.482;9.160;2024-02-26T03:08:20;12.13;;;8.03;;
77769;SDS011;66961;51.482;9.160;2024-02-26T03:10:45;9.67;;;7.23;;
77769;SDS011;66961;51.482;9.160;2024-02-26T03:13:10;11.97;;;7.93;;
77769;SDS011;66961;51.482;9.160;2024-02-26T03:15:36;13.57;;;8.23;;
77769;SDS011;66961;51.482;9.160;2024-02-26T03:18:01;14.27;;;8.03;;
77769;SDS011;66961;51.482;9.160;2024-02-26T03:20:26;11.83;;;7.47;;
77769;SDS011;66961;51.482;9.160;2024-02-26T03:22:51;11.40;;;7.03;;
77769;SDS011;66961;51.482;9.160;2024-02-26T03:25:17;13.03;;;7.27;;
77769;SDS011;66961;51.482;9.160;2024-02-26T03:27:42;11.03;;;6.50;;
77769;SDS011;66961;51.482;9.160;2024-02-26T03:30:07;10.63;;;6.27;;
77769;SDS011;66961;51.482;9.160;2024-02-26T03:32:33;13.73;;;6.70;;
77769;SDS011;66961;51.482;9.160;2024-02-26T03:34:59;9.57;;;6.33;;
77769;SDS011;66961;51.482;9.160;2024-02-26T03:37:24;10.82;;;6.60;;
77769;SDS011;66961;51.482;9.160;2024-02-26T03:39:49;9.47;;;5.83;;
77769;SDS011;66961;51.482;9.160;2024-02-26T03:42:15;8.10;;;5.90;;
77769;SDS011;66961;51.482;9.160;2024-02-26T03:44:40;8.77;;;5.93;;
77769;SDS011;66961;51.482;9.160;2024-02-26T03:47:05;8.80;;;5.73;;
77769;SDS011;66961;51.482;9.160;2024-02-26T03:49:30;9.33;;;5.77;;
77769;SDS011;66961;51.482;9.160;2024-02-26T03:51:56;9.07;;;5.40;;
77769;SDS011;66961;51.482;9.160;2024-02-26T03:54:21;9.13;;;6.37;;
77769;SDS011;66961;51.482;9.160;2024-02-26T03:56:46;8.53;;;5.93;;
77769;SDS011;66961;51.482;9.160;2024-02-26T03:59:11;8.27;;;6.07;;
77769;SDS011;66961;51.482;9.160;2024-02-26T04:01:37;10.57;;;6.43;;
77769;SDS011;66961;51.482;9.160;2024-02-26T04:04:02;8.85;;;5.80;;
77769;SDS011;66961;51.482;9.160;2024-02-26T04:06:27;7.35;;;5.05;;
77769;SDS011;66961;51.482;9.160;2024-02-26T04:08:53;7.55;;;5.20;;
77769;SDS011;66961;51.482;9.160;2024-02-26T04:11:18;6.87;;;4.50;;
77769;SDS011;66961;51.482;9.160;2024-02-26T04:13:44;8.33;;;4.80;;
77769;SDS011;66961;51.482;9.160;2024-02-26T04:16:09;6.28;;;4.57;;
77769;SDS011;66961;51.482;9.160;2024-02-26T04:18:34;6.47;;;4.37;;
77769;SDS011;66961;51.482;9.160;2024-02-26T04:21:00;6.73;;;4.27;;
77769;SDS011;66961;51.482;9.160;2024-02-26T04:23:25;5.97;;;4.30;;
77769;SDS011;66961;51.482;9.160;2024-02-26T04:25:50;6.97;;;4.30;;
77769;SDS011;66961;51.482;9.160;2024-02-26T04:28:15;6.70;;;4.40;;
77769;SDS011;66961;51.482;9.160;2024-02-26T04:30:41;9.03;;;4.63;;
77769;SDS011;66961;51.482;9.160;2024-02-26T04:33:07;5.75;;;3.28;;
77769;SDS011;66961;51.482;9.160;2024-02-26T04:35:33;6.47;;;3.60;;
77769;SDS011;66961;51.482;9.160;2024-02-26T04:37:58;5.30;;;3.40;;
77769;SDS011;66961;51.482;9.160;2024-02-26T04:40:23;6.10;;;3.57;;
77769;SDS011;66961;51.482;9.160;2024-02-26T04:42:48;4.43;;;3.13;;
77769;SDS011;66961;51.482;9.160;2024-02-26T04:45:14;5.53;;;3.00;;
77769;SDS011;66961;51.482;9.160;2024-02-26T04:47:39;3.90;;;3.33;;
77769;SDS011;66961;51.482;9.160;2024-02-26T04:50:05;5.77;;;3.27;;
77769;SDS011;66961;51.482;9.160;2024-02-26T04:52:30;4.70;;;3.05;;
77769;SDS011;66961;51.482;9.160;2024-02-26T04:54:55;4.33;;;3.37;;
77769;SDS011;66961;51.482;9.160;2024-02-26T04:57:21;7.73;;;3.83;;
77769;SDS011;66961;51.482;9.160;2024-02-26T04:59:46;8.63;;;4.32;;
77769;SDS011;66961;51.482;9.160;2024-02-26T05:02:12;7.83;;;4.73;;
77769;SDS011;66961;51.482;9.160;2024-02-26T05:04:37;5.57;;;3.70;;
77769;SDS011;66961;51.482;9.160;2024-02-26T05:07:03;4.65;;;3.65;;
77769;SDS011;66961;51.482;9.160;2024-02-26T05:09:29;5.07;;;3.38;;
77769;SDS011;66961;51.482;9.160;2024-02-26T05:11:54;5.32;;;3.90;;
77769;SDS011;66961;51.482;9.160;2024-02-26T05:14:19;5.85;;;3.90;;
77769;SDS011;66961;51.482;9.160;2024-02-26T05:16:45;6.90;;;4.70;;
77769;SDS011;66961;51.482;9.160;2024-02-26T05:19:10;8.37;;;4.40;;
77769;SDS011;66961;51.482;9.160;2024-02-26T05:21:36;6.25;;;4.38;;
77769;SDS011;66961;51.482;9.160;2024-02-26T05:24:01;7.83;;;4.63;;
77769;SDS011;66961;51.482;9.160;2024-02-26T05:26:27;9.43;;;5.20;;
77769;SDS011;66961;51.482;9.160;2024-02-26T05:28:52;7.53;;;4.70;;
77769;SDS011;66961;51.482;9.160;2024-02-26T05:31:17;7.80;;;5.30;;
77769;SDS011;66961;51.482;9.160;2024-02-26T05:33:42;8.33;;;4.90;;
77769;SDS011;66961;51.482;9.160;2024-02-26T05:36:08;7.55;;;4.38;;
77769;SDS011;66961;51.482;9.160;2024-02-26T05:38:33;7.40;;;3.88;;
77769;SDS011;66961;51.482;9.160;2024-02-26T05:40:59;5.07;;;3.87;;
77769;SDS011;66961;51.482;9.160;2024-02-26T05:43:27;5.95;;;3.80;;
77769;SDS011;66961;51.482;9.160;2024-02-26T05:45:53;5.90;;;4.03;;
77769;SDS011;66961;51.482;9.160;2024-02-26T05:48:18;6.22;;;3.60;;
77769;SDS011;66961;51.482;9.160;2024-02-26T05:50:44;5.32;;;3.38;;
77769;SDS011;66961;51.482;9.160;2024-02-26T05:53:09;6.47;;;4.45;;
77769;SDS011;66961;51.482;9.160;2024-02-26T05:55:35;8.03;;;4.50;;
77769;SDS011;66961;51.482;9.160;2024-02-26T05:58:00;6.10;;;3.77;;
77769;SDS011;66961;51.482;9.160;2024-02-26T06:00:25;4.50;;;3.50;;
77769;SDS011;66961;51.482;9.160;2024-02-26T06:02:50;6.00;;;4.03;;
77769;SDS011;66961;51.482;9.160;2024-02-26T06:05:16;5.70;;;3.57;;
77769;SDS011;66961;51.482;9.160;2024-02-26T06:07:41;5.87;;;3.53;;
77769;SDS011;66961;51.482;9.160;2024-02-26T06:10:06;4.57;;;3.20;;
77769;SDS011;66961;51.482;9.160;2024-02-26T06:12:34;4.28;;;2.90;;
77769;SDS011;66961;51.482;9.160;2024-02-26T06:15:00;6.70;;;3.40;;
77769;SDS011;66961;51.482;9.160;2024-02-26T06:17:25;4.73;;;2.77;;
77769;SDS011;66961;51.482;9.160;2024-02-26T06:19:50;5.30;;;3.67;;
77769;SDS011;66961;51.482;9.160;2024-02-26T06:22:16;7.87;;;5.10;;
77769;SDS011;66961;51.482;9.160;2024-02-26T06:24:41;9.93;;;6.00;;
77769;SDS011;66961;51.482;9.160;2024-02-26T06:27:06;7.33;;;4.67;;
77769;SDS011;66961;51.482;9.160;2024-02-26T06:29:31;11.43;;;6.23;;
77769;SDS011;66961;51.482;9.160;2024-02-26T06:31:57;9.03;;;5.03;;
77769;SDS011;66961;51.482;9.160;2024-02-26T06:34:22;8.03;;;5.37;;
77769;SDS011;66961;51.482;9.160;2024-02-26T06:36:47;7.70;;;4.77;;
77769;SDS011;66961;51.482;9.160;2024-02-26T06:39:12;6.47;;;4.30;;
77769;SDS011;66961;51.482;9.160;2024-02-26T06:41:38;7.93;;;5.07;;
77769;SDS011;66961;51.482;9.160;2024-02-26T06:44:03;7.07;;;3.97;;
77769;SDS011;66961;51.482;9.160;2024-02-26T06:46:28;15.13;;;9.95;;
77769;SDS011;66961;51.482;9.160;2024-02-26T06:48:54;6.40;;;4.57;;
77769;SDS011;66961;51.482;9.160;2024-02-26T06:51:19;6.63;;;3.67;;
77769;SDS011;66961;51.482;9.160;2024-02-26T06:53:44;11.97;;;7.03;;
77769;SDS011;66961;51.482;9.160;2024-02-26T06:56:09;9.27;;;5.53;;
77769;SDS011;66961;51.482;9.160;2024-02-26T06:58:35;6.50;;;3.87;;
77769;SDS011;66961;51.482;9.160;2024-02-26T07:01:00;5.63;;;4.27;;
77769;SDS011;66961;51.482;9.160;2024-02-26T07:03:25;5.25;;;3.53;;
77769;SDS011;66961;51.482;9.160;2024-02-26T07:05:51;6.03;;;3.73;;
77769;SDS011;66961;51.482;9.160;2024-02-26T07:08:16;4.97;;;3.17;;
77769;SDS011;66961;51.482;9.160;2024-02-26T07:10:41;5.77;;;3.40;;
77769;SDS011;66961;51.482;9.160;2024-02-26T07:13:07;5.60;;;4.00;;
77769;SDS011;66961;51.482;9.160;2024-02-26T07:15:32;5.17;;;3.70;;
77769;SDS011;66961;51.482;9.160;2024-02-26T07:17:57;5.67;;;3.30;;
77769;SDS011;66961;51.482;9.160;2024-02-26T07:20:22;4.60;;;3.33;;
77769;SDS011;66961;51.482;9.160;2024-02-26T07:22:48;3.93;;;2.90;;
77769;SDS011;66961;51.482;9.160;2024-02-26T07:25:13;4.00;;;2.63;;
77769;SDS011;66961;51.482;9.160;2024-02-26T07:27:39;3.83;;;2.97;;
77769;SDS011;66961;51.482;9.160;2024-02-26T07:30:05;4.63;;;3.15;;
77769;SDS011;66961;51.482;9.160;2024-02-26T07:32:31;5.40;;;3.70;;
77769;SDS011;66961;51.482;9.160;2024-02-26T07:34:56;6.93;;;4.33;;
77769;SDS011;66961;51.482;9.160;2024-02-26T07:37:21;7.20;;;4.80;;
77769;SDS011;66961;51.482;9.160;2024-02-26T07:39:46;7.87;;;4.30;;
77769;SDS011;66961;51.482;9.160;2024-02-26T07:42:12;5.53;;;3.83;;
77769;SDS011;66961;51.482;9.160;2024-02-26T07:44:37;7.30;;;5.00;;
77769;SDS011;66961;51.482;9.160;2024-02-26T07:47:02;7.07;;;4.23;;
77769;SDS011;66961;51.482;9.160;2024-02-26T07:49:28;8.38;;;5.53;;
77769;SDS011;66961;51.482;9.160;2024-02-26T07:51:53;7.30;;;4.90;;
77769;SDS011;66961;51.482;9.160;2024-02-26T07:54:18;5.90;;;4.13;;
77769;SDS011;66961;51.482;9.160;2024-02-26T07:59:11;7.97;;;5.03;;
77769;SDS011;66961;51.482;9.160;2024-02-26T08:01:36;8.03;;;5.40;;
77769;SDS011;66961;51.482;9.160;2024-02-26T08:04:01;8.53;;;4.57;;
77769;SDS011;66961;51.482;9.160;2024-02-26T08:06:26;7.40;;;4.87;;
77769;SDS011;66961;51.482;9.160;2024-02-26T08:08:52;6.80;;;4.07;;
77769;SDS011;66961;51.482;9.160;2024-02-26T08:11:17;5.73;;;3.97;;
77769;SDS011;66961;51.482;9.160;2024-02-26T08:13:42;6.00;;;4.10;;
77769;SDS011;66961;51.482;9.160;2024-02-26T08:16:07;7.90;;;4.57;;
77769;SDS011;66961;51.482;9.160;2024-02-26T08:18:33;7.70;;;4.77;;
77769;SDS011;66961;51.482;9.160;2024-02-26T08:20:58;9.63;;;4.80;;
77769;SDS011;66961;51.482;9.160;2024-02-26T08:23:23;6.70;;;4.00;;
77769;SDS011;66961;51.482;9.160;2024-02-26T08:25:49;7.67;;;4.37;;
77769;SDS011;66961;51.482;9.160;2024-02-26T08:28:14;9.00;;;4.53;;
77769;SDS011;66961;51.482;9.160;2024-02-26T08:30:39;7.73;;;4.70;;
77769;SDS011;66961;51.482;9.160;2024-02-26T08:33:04;9.90;;;4.90;;
77769;SDS011;66961;51.482;9.160;2024-02-26T08:35:30;9.47;;;5.67;;
77769;SDS011;66961;51.482;9.160;2024-02-26T08:40:28;10.32;;;6.15;;
77769;SDS011;66961;51.482;9.160;2024-02-26T08:42:54;11.32;;;6.38;;
77769;SDS011;66961;51.482;9.160;2024-02-26T08:45:19;13.15;;;7.05;;
77769;SDS011;66961;51.482;9.160;2024-02-26T08:47:45;10.97;;;6.70;;
77769;SDS011;66961;51.482;9.160;2024-02-26T08:50:10;12.75;;;7.28;;
77769;SDS011;66961;51.482;9.160;2024-02-26T08:52:35;10.63;;;6.27;;
77769;SDS011;66961;51.482;9.160;2024-02-26T08:55:01;12.40;;;7.80;;
77769;SDS011;66961;51.482;9.160;2024-02-26T08:57:26;13.47;;;7.37;;
77769;SDS011;66961;51.482;9.160;2024-02-26T08:59:51;16.10;;;10.00;;
77769;SDS011;66961;51.482;9.160;2024-02-26T09:02:16;12.47;;;6.90;;
77769;SDS011;66961;51.482;9.160;2024-02-26T09:04:42;12.60;;;7.03;;
77769;SDS011;66961;51.482;9.160;2024-02-26T09:07:07;13.80;;;7.80;;
77769;SDS011;66961;51.482;9.160;2024-02-26T09:09:32;13.53;;;7.30;;
77769;SDS011;66961;51.482;9.160;2024-02-26T09:11:57;11.27;;;7.40;;
77769;SDS011;66961;51.482;9.160;2024-02-26T09:14:23;12.63;;;7.90;;
77769;SDS011;66961;51.482;9.160;2024-02-26T09:16:48;11.50;;;7.13;;
77769;SDS011;66961;51.482;9.160;2024-02-26T09:19:14;11.67;;;7.17;;
77769;SDS011;66961;51.482;9.160;2024-02-26T09:21:43;11.75;;;7.43;;
77769;SDS011;66961;51.482;9.160;2024-02-26T09:24:08;12.77;;;7.72;;
77769;SDS011;66961;51.482;9.160;2024-02-26T09:26:34;10.67;;;7.00;;
77769;SDS011;66961;51.482;9.160;2024-02-26T09:28:59;11.33;;;7.17;;
77769;SDS011;66961;51.482;9.160;2024-02-26T09:31:24;11.67;;;6.97;;
77769;SDS011;66961;51.482;9.160;2024-02-26T09:33:49;11.20;;;7.20;;
77769;SDS011;66961;51.482;9.160;2024-02-26T09:36:15;12.20;;;9.30;;
77769;SDS011;66961;51.482;9.160;2024-02-26T09:38:40;12.87;;;9.27;;
77769;SDS011;66961;51.482;9.160;2024-02-26T09:41:05;13.80;;;9.30;;
77769;SDS011;66961;51.482;9.160;2024-02-26T09:43:34;11.13;;;7.43;;
77769;SDS011;66961;51.482;9.160;2024-02-26T09:46:00;11.68;;;7.25;;
77769;SDS011;66961;51.482;9.160;2024-02-26T09:48:26;9.68;;;7.15;;
77769;SDS011;66961;51.482;9.160;2024-02-26T09:50:51;10.23;;;6.70;;
77769;SDS011;66961;51.482;9.160;2024-02-26T09:53:17;8.40;;;5.85;;
77769;SDS011;66961;51.482;9.160;2024-02-26T09:55:43;10.40;;;5.97;;
77769;SDS011;66961;51.482;9.160;2024-02-26T09:58:08;8.63;;;5.28;;
77769;SDS011;66961;51.482;9.160;2024-02-26T10:00:37;8.27;;;4.88;;
77769;SDS011;66961;51.482;9.160;2024-02-26T10:03:03;8.20;;;5.13;;
77769;SDS011;66961;51.482;9.160;2024-02-26T10:05:31;7.97;;;5.28;;
77769;SDS011;66961;51.482;9.160;2024-02-26T10:07:58;8.00;;;4.90;;
77769;SDS011;66961;51.482;9.160;2024-02-26T10:10:24;8.98;;;5.18;;
77769;SDS011;66961;51.482;9.160;2024-02-26T10:12:50;7.85;;;5.60;;
77769;SDS011;66961;51.482;9.160;2024-02-26T10:15:15;10.10;;;5.27;;
77769;SDS011;66961;51.482;9.160;2024-02-26T10:17:41;7.07;;;4.77;;
77769;SDS011;66961;51.482;9.160;2024-02-26T10:20:16;7.57;;;4.90;;
77769;SDS011;66961;51.482;9.160;2024-02-26T10:22:42;7.45;;;4.90;;
77769;SDS011;66961;51.482;9.160;2024-02-26T10:25:09;10.10;;;5.53;;
77769;SDS011;66961;51.482;9.160;2024-02-26T10:27:34;8.38;;;4.95;;
77769;SDS011;66961;51.482;9.160;2024-02-26T10:30:18;8.48;;;4.90;;
77769;SDS011;66961;51.482;9.160;2024-02-26T10:32:45;8.35;;;4.88;;
77769;SDS011;66961;51.482;9.160;2024-02-26T10:35:11;6.55;;;5.07;;
77769;SDS011;66961;51.482;9.160;2024-02-26T10:37:36;7.63;;;5.35;;
77769;SDS011;66961;51.482;9.160;2024-02-26T10:40:01;8.37;;;5.30;;
77769;SDS011;66961;51.482;9.160;2024-02-26T10:42:27;8.98;;;5.50;;
77769;SDS011;66961;51.482;9.160;2024-02-26T10:44:52;7.40;;;4.97;;
77769;SDS011;66961;51.482;9.160;2024-02-26T10:47:17;7.53;;;4.83;;
77769;SDS011;66961;51.482;9.160;2024-02-26T10:49:46;8.17;;;5.37;;
77769;SDS011;66961;51.482;9.160;2024-02-26T10:52:12;7.75;;;5.38;;
77769;SDS011;66961;51.482;9.160;2024-02-26T10:54:38;11.15;;;5.80;;
77769;SDS011;66961;51.482;9.160;2024-02-26T10:57:06;8.73;;;5.47;;
77769;SDS011;66961;51.482;9.160;2024-02-26T10:59:34;9.88;;;6.40;;
77769;SDS011;66961;51.482;9.160;2024-02-26T11:02:00;7.13;;;5.18;;
77769;SDS011;66961;51.482;9.160;2024-02-26T11:04:26;8.65;;;5.53;;
77769;SDS011;66961;51.482;9.160;2024-02-26T11:06:52;7.38;;;5.03;;
77769;SDS011;66961;51.482;9.160;2024-02-26T11:09:19;9.13;;;5.43;;
77769;SDS011;66961;51.482;9.160;2024-02-26T11:11:44;8.60;;;4.72;;
77769;SDS011;66961;51.482;9.160;2024-02-26T11:14:10;8.23;;;5.85;;
77769;SDS011;66961;51.482;9.160;2024-02-26T11:16:36;7.95;;;5.35;;
77769;SDS011;66961;51.482;9.160;2024-02-26T11:19:03;7.82;;;4.88;;
77769;SDS011;66961;51.482;9.160;2024-02-26T11:21:33;8.15;;;5.40;;
77769;SDS011;66961;51.482;9.160;2024-02-26T11:23:58;8.18;;;5.78;;
77769;SDS011;66961;51.482;9.160;2024-02-26T11:26:24;8.93;;;5.95;;
77769;SDS011;66961;51.482;9.160;2024-02-26T11:28:51;8.50;;;5.28;;
77769;SDS011;66961;51.482;9.160;2024-02-26T11:31:18;8.95;;;5.78;;
77769;SDS011;66961;51.482;9.160;2024-02-26T11:33:43;8.25;;;4.80;;
77769;SDS011;66961;51.482;9.160;2024-02-26T11:36:09;7.90;;;5.32;;
77769;SDS011;66961;51.482;9.160;2024-02-26T11:38:34;7.47;;;5.20;;
77769;SDS011;66961;51.482;9.160;2024-02-26T11:41:00;6.75;;;5.15;;
77769;SDS011;66961;51.482;9.160;2024-02-26T11:43:49;9.98;;;5.20;;
77769;SDS011;66961;51.482;9.160;2024-02-26T11:46:33;6.97;;;5.07;;
77769;SDS011;66961;51.482;9.160;2024-02-26T11:49:30;8.20;;;5.05;;
77769;SDS011;66961;51.482;9.160;2024-02-26T11:51:52;8.07;;;4.70;;
77769;SDS011;66961;51.482;9.160;2024-02-26T11:57:04;7.85;;;4.65;;
77769;SDS011;66961;51.482;9.160;2024-02-26T11:59:38;10.25;;;4.55;;
77769;SDS011;66961;51.482;9.160;2024-02-26T12:02:04;7.60;;;4.72;;
77769;SDS011;66961;51.482;9.160;2024-02-26T12:04:30;9.93;;;5.13;;
77769;SDS011;66961;51.482;9.160;2024-02-26T12:06:56;14.95;;;7.28;;
77769;SDS011;66961;51.482;9.160;2024-02-26T12:09:32;10.13;;;6.25;;
77769;SDS011;66961;51.482;9.160;2024-02-26T12:11:59;11.98;;;7.13;;
77769;SDS011;66961;51.482;9.160;2024-02-26T12:14:26;9.13;;;4.72;;
77769;SDS011;66961;51.482;9.160;2024-02-26T12:16:52;9.35;;;5.43;;
77769;SDS011;66961;51.482;9.160;2024-02-26T12:19:17;9.25;;;5.30;;
77769;SDS011;66961;51.482;9.160;2024-02-26T12:21:43;8.50;;;5.28;;
77769;SDS011;66961;51.482;9.160;2024-02-26T12:24:15;12.20;;;7.97;;
77769;SDS011;66961;51.482;9.160;2024-02-26T12:26:40;8.07;;;5.63;;
77769;SDS011;66961;51.482;9.160;2024-02-26T12:29:06;8.85;;;5.45;;
77769;SDS011;66961;51.482;9.160;2024-02-26T12:31:34;8.40;;;5.65;;
77769;SDS011;66961;51.482;9.160;2024-02-26T12:34:00;8.52;;;5.35;;
77769;SDS011;66961;51.482;9.160;2024-02-26T12:36:26;7.57;;;4.65;;
77769;SDS011;66961;51.482;9.160;2024-02-26T12:38:52;10.93;;;4.82;;
77769;SDS011;66961;51.482;9.160;2024-02-26T12:41:17;7.22;;;4.72;;
77769;SDS011;66961;51.482;9.160;2024-02-26T12:43:43;9.38;;;5.13;;
77769;SDS011;66961;51.482;9.160;2024-02-26T12:46:08;9.05;;;5.30;;
77769;SDS011;66961;51.482;9.160;2024-02-26T12:48:33;7.50;;;4.70;;
77769;SDS011;66961;51.482;9.160;2024-02-26T12:50:59;7.75;;;4.32;;
77769;SDS011;66961;51.482;9.160;2024-02-26T12:53:25;6.82;;;4.25;;
77769;SDS011;66961;51.482;9.160;2024-02-26T12:55:51;10.07;;;4.82;;
77769;SDS011;66961;51.482;9.160;2024-02-26T12:58:16;6.60;;;4.47;;
77769;SDS011;66961;51.482;9.160;2024-02-26T13:00:42;7.25;;;4.60;;
77769;SDS011;66961;51.482;9.160;2024-02-26T13:03:09;8.63;;;4.70;;
77769;SDS011;66961;51.482;9.160;2024-02-26T13:05:34;6.45;;;4.32;;
77769;SDS011;66961;51.482;9.160;2024-02-26T13:08:00;6.95;;;4.88;;
77769;SDS011;66961;51.482;9.160;2024-02-26T13:10:25;6.97;;;4.53;;
77769;SDS011;66961;51.482;9.160;2024-02-26T13:12:51;8.32;;;4.60;;
77769;SDS011;66961;51.482;9.160;2024-02-26T13:15:17;7.53;;;4.80;;
77769;SDS011;66961;51.482;9.160;2024-02-26T13:17:46;8.00;;;5.00;;
77769;SDS011;66961;51.482;9.160;2024-02-26T13:20:12;8.10;;;4.47;;
77769;SDS011;66961;51.482;9.160;2024-02-26T13:22:38;10.40;;;4.40;;
77769;SDS011;66961;51.482;9.160;2024-02-26T13:25:04;7.90;;;5.03;;
77769;SDS011;66961;51.482;9.160;2024-02-26T13:27:30;7.40;;;5.10;;
77769;SDS011;66961;51.482;9.160;2024-02-26T13:30:11;8.68;;;4.38;;
77769;SDS011;66961;51.482;9.160;2024-02-26T13:32:38;6.57;;;4.80;;
77769;SDS011;66961;51.482;9.160;2024-02-26T13:35:11;7.40;;;3.92;;
77769;SDS011;66961;51.482;9.160;2024-02-26T13:37:37;6.22;;;4.50;;
77769;SDS011;66961;51.482;9.160;2024-02-26T13:40:07;7.10;;;4.28;;
77769;SDS011;66961;51.482;9.160;2024-02-26T13:42:33;10.38;;;4.95;;
77769;SDS011;66961;51.482;9.160;2024-02-26T13:44:59;6.43;;;4.40;;
77769;SDS011;66961;51.482;9.160;2024-02-26T13:47:25;12.23;;;6.85;;
77769;SDS011;66961;51.482;9.160;2024-02-26T13:49:50;11.47;;;5.50;;
77769;SDS011;66961;51.482;9.160;2024-02-26T13:52:15;9.33;;;5.10;;
77769;SDS011;66961;51.482;9.160;2024-02-26T13:54:41;6.80;;;4.33;;
77769;SDS011;66961;51.482;9.160;2024-02-26T13:57:06;6.17;;;4.33;;
77769;SDS011;66961;51.482;9.160;2024-02-26T13:59:32;5.95;;;3.92;;
77769;SDS011;66961;51.482;9.160;2024-02-26T14:01:57;6.73;;;4.03;;
77769;SDS011;66961;51.482;9.160;2024-02-26T14:04:22;7.40;;;4.00;;
77769;SDS011;66961;51.482;9.160;2024-02-26T14:06:47;5.60;;;3.43;;
77769;SDS011;66961;51.482;9.160;2024-02-26T14:09:13;9.30;;;4.60;;
77769;SDS011;66961;51.482;9.160;2024-02-26T14:11:38;6.00;;;4.07;;
77769;SDS011;66961;51.482;9.160;2024-02-26T14:14:03;8.00;;;4.13;;
77769;SDS011;66961;51.482;9.160;2024-02-26T14:16:28;6.57;;;4.20;;
77769;SDS011;66961;51.482;9.160;2024-02-26T14:18:54;5.90;;;3.93;;
77769;SDS011;66961;51.482;9.160;2024-02-26T14:21:19;6.13;;;4.27;;
77769;SDS011;66961;51.482;9.160;2024-02-26T14:23:44;6.03;;;4.20;;
77769;SDS011;66961;51.482;9.160;2024-02-26T14:26:10;7.10;;;4.50;;
77769;SDS011;66961;51.482;9.160;2024-02-26T14:28:35;7.45;;;4.30;;
77769;SDS011;66961;51.482;9.160;2024-02-26T14:31:01;8.07;;;3.97;;
77769;SDS011;66961;51.482;9.160;2024-02-26T14:33:26;5.97;;;3.73;;
77769;SDS011;66961;51.482;9.160;2024-02-26T14:35:51;7.30;;;4.37;;
77769;SDS011;66961;51.482;9.160;2024-02-26T14:38:16;5.40;;;3.77;;
77769;SDS011;66961;51.482;9.160;2024-02-26T14:40:42;6.93;;;3.93;;